Terminal Aerodrome Forecast
Issued by NWS La Crosse, WI

Home | Current Version | Previous Version | Text Only | Print | Product List | Glossary On
Versions: 1 2 3 4 5 6 7 8 9 10 11 12 13 14 15 16 17 18 19 20 21 22 23 24 25 26 27 28 29 30 31 32 33 34 35 36 37 38 39 40 41 42 43 44 45 46 47 48
000
FTUS43 KARX 231730
TAFLSE
TAF
KLSE 231730Z 2318/2418 09005KT 5SM -SHRA BKN015
      TEMPO 2318/2319 P6SM -SHRA BKN030
     FM231900 10006KT P6SM BKN040
     FM240000 12007KT P6SM BKN100
     FM240900 13008KT P6SM BKN007=

USA.gov is the U.S. government's official web portal to all federal, state and local government web resources and services.